Time;durP1;ratioP1;P1;durP2;ratioP2;P2;SDS_P1;SDS_P2;PMS_P1;PMS_P2;Temp;Humidity;BMP_temperature;BMP_pressure;BME280_temperature;BME280_humidity;BME280_pressure;Samples;Min_cycle;Max_cycle;Signal;HPM_P1;HPM_P2
2021/05/29 00:02:17;;;;;;;8.70;5.77;;;;;;;;;;5045220;28;20839;-50
2021/05/29 00:04:43;;;;;;;7.70;5.10;;;;;;;;;;5031684;28;20496;-51
2021/05/29 00:07:09;;;;;;;7.80;5.90;;;;;;;;;;5050684;28;20398;-51
2021/05/29 00:09:35;;;;;;;6.70;6.10;;;;;;;;;;5049081;28;20437;-50
2021/05/29 00:12:02;;;;;;;7.37;6.17;;;;;;;;;;5040319;28;20412;-49
2021/05/29 00:14:30;;;;;;;7.03;5.67;;;;;;;;;;5050271;28;20424;-50
2021/05/29 00:16:56;;;;;;;6.20;5.67;;;;;;;;;;5049116;28;20806;-50
2021/05/29 00:19:22;;;;;;;6.37;5.73;;;;;;;;;;5050626;28;20421;-50
2021/05/29 00:21:48;;;;;;;7.10;5.97;;;;;;;;;;5035217;28;20501;-50
2021/05/29 00:24:14;;;;;;;7.23;6.57;;;;;;;;;;5050396;28;20454;-50
2021/05/29 00:26:40;;;;;;;8.60;6.20;;;;;;;;;;5031877;28;20450;-50
2021/05/29 00:29:07;;;;;;;7.43;6.13;;;;;;;;;;5043601;28;21147;-51
2021/05/29 00:31:33;;;;;;;8.90;6.13;;;;;;;;;;5048367;28;20407;-50
2021/05/29 00:33:58;;;;;;;7.87;6.40;;;;;;;;;;5030240;28;20427;-50
2021/05/29 00:36:25;;;;;;;26.53;7.20;;;;;;;;;;5030584;28;20494;-50
2021/05/29 00:38:51;;;;;;;12.13;7.23;;;;;;;;;;5050242;28;20521;-50
2021/05/29 00:41:17;;;;;;;10.00;6.70;;;;;;;;;;5034990;28;20426;-50
2021/05/29 00:43:44;;;;;;;11.00;6.10;;;;;;;;;;5049648;28;20415;-50
2021/05/29 00:46:10;;;;;;;6.60;6.00;;;;;;;;;;5036738;28;20502;-50
2021/05/29 00:48:37;;;;;;;7.50;6.30;;;;;;;;;;5030549;28;20463;-50
2021/05/29 00:51:03;;;;;;;6.70;6.10;;;;;;;;;;5041167;28;20413;-50
2021/05/29 00:53:30;;;;;;;7.70;6.00;;;;;;;;;;5047384;28;20457;-50
2021/05/29 00:55:57;;;;;;;11.63;6.90;;;;;;;;;;5038649;28;20438;-50
2021/05/29 00:58:23;;;;;;;7.23;6.57;;;;;;;;;;5030610;28;20806;-51
2021/05/29 01:00:50;;;;;;;8.83;6.87;;;;;;;;;;5041511;28;20445;-49
2021/05/29 01:03:16;;;;;;;8.80;7.13;;;;;;;;;;5044600;28;20808;-50
2021/05/29 01:05:42;;;;;;;17.67;7.97;;;;;;;;;;5049507;28;20796;-50
2021/05/29 01:08:08;;;;;;;9.00;7.20;;;;;;;;;;5047618;28;20848;-50
2021/05/29 01:10:34;;;;;;;11.33;6.70;;;;;;;;;;5050246;28;20410;-50
2021/05/29 01:13:02;;;;;;;8.63;6.27;;;;;;;;;;5043488;28;20410;-50
2021/05/29 01:15:37;;;;;;;8.30;6.40;;;;;;;;;;5041362;28;20471;-50
2021/05/29 01:18:04;;;;;;;7.43;5.20;;;;;;;;;;5038707;28;20468;-51
2021/05/29 01:20:30;;;;;;;9.17;6.47;;;;;;;;;;5053840;28;20422;-50
2021/05/29 01:22:57;;;;;;;6.40;5.70;;;;;;;;;;5042013;28;20418;-50
2021/05/29 01:25:25;;;;;;;10.97;6.57;;;;;;;;;;5034019;28;20857;-51
2021/05/29 01:28:15;;;;;;;6.97;6.00;;;;;;;;;;5043645;28;20434;-51
2021/05/29 01:30:48;;;;;;;9.60;6.10;;;;;;;;;;5050039;28;21013;-50
2021/05/29 01:33:18;;;;;;;8.47;6.60;;;;;;;;;;5039390;28;21161;-50
2021/05/29 01:35:45;;;;;;;9.13;6.70;;;;;;;;;;5042417;28;20955;-50
2021/05/29 01:38:11;;;;;;;8.30;7.17;;;;;;;;;;5053180;28;20430;-49
2021/05/29 01:40:38;;;;;;;13.30;6.50;;;;;;;;;;5044994;28;20489;-50
2021/05/29 01:43:04;;;;;;;10.13;7.03;;;;;;;;;;5045079;28;20440;-50
2021/05/29 01:45:30;;;;;;;9.17;7.70;;;;;;;;;;5051766;28;20460;-51
2021/05/29 01:47:56;;;;;;;7.03;6.20;;;;;;;;;;5053424;28;20421;-50
2021/05/29 01:50:23;;;;;;;7.47;6.77;;;;;;;;;;5041973;28;20423;-50
2021/05/29 01:52:49;;;;;;;8.07;6.10;;;;;;;;;;5042693;28;20917;-51
2021/05/29 01:55:15;;;;;;;6.70;6.10;;;;;;;;;;5046673;28;20436;-50
2021/05/29 01:57:41;;;;;;;6.70;6.00;;;;;;;;;;5051483;28;20441;-50
2021/05/29 02:00:08;;;;;;;10.80;6.70;;;;;;;;;;5047792;28;20835;-50
2021/05/29 02:02:34;;;;;;;11.10;6.67;;;;;;;;;;5048715;28;20932;-50
2021/05/29 02:05:08;;;;;;;7.40;6.10;;;;;;;;;;5047828;28;20464;-50
2021/05/29 02:07:34;;;;;;;9.23;6.50;;;;;;;;;;5041357;28;20418;-50
2021/05/29 02:10:00;;;;;;;7.27;6.57;;;;;;;;;;5052991;28;20408;-50
2021/05/29 02:12:26;;;;;;;6.67;5.87;;;;;;;;;;5043234;28;20423;-50
2021/05/29 02:14:52;;;;;;;7.83;6.80;;;;;;;;;;5047955;28;20449;-50
2021/05/29 02:17:18;;;;;;;11.53;6.90;;;;;;;;;;5033993;28;20431;-50
2021/05/29 02:19:44;;;;;;;10.33;8.63;;;;;;;;;;5033105;28;20413;-50
2021/05/29 02:22:10;;;;;;;8.03;7.23;;;;;;;;;;5036520;28;20965;-50
2021/05/29 02:24:36;;;;;;;12.80;9.33;;;;;;;;;;5048546;28;20454;-50
2021/05/29 02:27:02;;;;;;;16.03;9.50;;;;;;;;;;5032687;28;20414;-50
2021/05/29 02:29:28;;;;;;;23.10;10.43;;;;;;;;;;5040407;28;20429;-50
2021/05/29 02:31:54;;;;;;;14.13;11.30;;;;;;;;;;5052234;28;20459;-50
2021/05/29 02:34:21;;;;;;;16.27;10.70;;;;;;;;;;5052541;28;20512;-50
2021/05/29 02:36:46;;;;;;;15.70;10.00;;;;;;;;;;5038206;28;20420;-50
2021/05/29 02:39:12;;;;;;;12.27;8.50;;;;;;;;;;5052488;28;20425;-50
2021/05/29 02:41:38;;;;;;;10.43;8.80;;;;;;;;;;5051958;28;20502;-50
2021/05/29 02:44:04;;;;;;;13.83;7.03;;;;;;;;;;5047541;28;20421;-50
2021/05/29 02:46:30;;;;;;;8.40;7.20;;;;;;;;;;5032563;28;20414;-50
2021/05/29 02:48:56;;;;;;;8.73;7.10;;;;;;;;;;5048532;28;20440;-50
2021/05/29 02:51:22;;;;;;;9.00;7.30;;;;;;;;;;5052280;28;20768;-50
2021/05/29 02:53:48;;;;;;;7.20;6.53;;;;;;;;;;5051597;28;20764;-50
2021/05/29 02:56:14;;;;;;;7.30;6.60;;;;;;;;;;5037217;28;20833;-50
2021/05/29 02:58:40;;;;;;;11.10;6.30;;;;;;;;;;5032175;28;20838;-50
2021/05/29 03:01:06;;;;;;;9.97;7.30;;;;;;;;;;5044939;28;20829;-50
2021/05/29 03:03:32;;;;;;;7.50;6.23;;;;;;;;;;5047834;28;20937;-50
2021/05/29 03:05:58;;;;;;;11.77;6.67;;;;;;;;;;5040247;28;20496;-50
2021/05/29 03:08:24;;;;;;;9.13;7.20;;;;;;;;;;5048049;28;20494;-50
2021/05/29 03:10:51;;;;;;;10.53;6.67;;;;;;;;;;5051549;28;20412;-50
2021/05/29 03:13:17;;;;;;;10.80;6.70;;;;;;;;;;5037952;28;20449;-51
2021/05/29 03:15:44;;;;;;;7.70;7.00;;;;;;;;;;5040031;28;20834;-50
2021/05/29 03:18:10;;;;;;;12.10;6.87;;;;;;;;;;5051781;28;20456;-50
2021/05/29 03:20:36;;;;;;;12.87;6.70;;;;;;;;;;5050038;28;20756;-50
2021/05/29 03:23:03;;;;;;;10.30;7.23;;;;;;;;;;5049175;28;20421;-50
2021/05/29 03:25:29;;;;;;;8.97;7.20;;;;;;;;;;5049411;28;20460;-50
2021/05/29 03:27:55;;;;;;;12.47;7.13;;;;;;;;;;5043297;28;20433;-50
2021/05/29 03:30:24;;;;;;;9.67;7.30;;;;;;;;;;5030567;28;20457;-50
2021/05/29 03:32:50;;;;;;;10.47;7.87;;;;;;;;;;5031251;28;21141;-50
2021/05/29 03:35:16;;;;;;;11.60;7.33;;;;;;;;;;5014002;28;20796;-50
2021/05/29 03:37:42;;;;;;;15.03;8.10;;;;;;;;;;5043790;28;20978;-50
2021/05/29 03:40:09;;;;;;;9.17;6.63;;;;;;;;;;5047392;28;20418;-50
2021/05/29 03:42:35;;;;;;;11.63;7.63;;;;;;;;;;5043000;28;20413;-50
2021/05/29 03:45:01;;;;;;;9.63;6.33;;;;;;;;;;5050926;28;20534;-50
2021/05/29 03:47:28;;;;;;;7.80;6.30;;;;;;;;;;5051431;28;20453;-50
2021/05/29 03:49:54;;;;;;;9.47;6.90;;;;;;;;;;5030647;28;21025;-50
2021/05/29 03:52:22;;;;;;;10.90;6.73;;;;;;;;;;5049239;28;20497;-51
2021/05/29 03:54:48;;;;;;;9.00;6.23;;;;;;;;;;5047605;28;20422;-51
2021/05/29 03:57:14;;;;;;;9.97;7.60;;;;;;;;;;5031950;28;20438;-50
2021/05/29 03:59:40;;;;;;;8.43;7.43;;;;;;;;;;5035694;28;20444;-50
2021/05/29 04:02:06;;;;;;;9.73;7.00;;;;;;;;;;5047887;28;20477;-50
2021/05/29 04:04:32;;;;;;;7.90;7.07;;;;;;;;;;5049246;28;20461;-51
2021/05/29 04:07:00;;;;;;;8.20;7.20;;;;;;;;;;5047767;28;20425;-50
2021/05/29 04:09:26;;;;;;;11.23;7.33;;;;;;;;;;5037926;28;20430;-50
2021/05/29 04:11:53;;;;;;;11.13;8.33;;;;;;;;;;5030509;28;20414;-50
2021/05/29 04:14:19;;;;;;;7.57;6.73;;;;;;;;;;5029984;28;20414;-50
2021/05/29 04:16:45;;;;;;;8.53;7.50;;;;;;;;;;5023705;28;21007;-50
2021/05/29 04:19:11;;;;;;;9.30;8.20;;;;;;;;;;5025335;28;20518;-50
2021/05/29 04:21:37;;;;;;;9.20;7.63;;;;;;;;;;5015865;28;20419;-50
2021/05/29 04:24:03;;;;;;;7.87;7.13;;;;;;;;;;5046453;28;20424;-54
2021/05/29 04:26:29;;;;;;;10.07;8.67;;;;;;;;;;5033509;28;20406;-51
2021/05/29 04:28:55;;;;;;;11.47;8.20;;;;;;;;;;5030721;28;20505;-51
2021/05/29 04:31:22;;;;;;;8.37;7.60;;;;;;;;;;5024022;28;20976;-51
2021/05/29 04:33:48;;;;;;;8.97;7.87;;;;;;;;;;5029338;28;20560;-50
2021/05/29 04:36:14;;;;;;;9.83;7.10;;;;;;;;;;5036922;28;20406;-50
2021/05/29 04:38:40;;;;;;;10.27;8.20;;;;;;;;;;5047962;28;20436;-50
2021/05/29 04:41:06;;;;;;;10.87;7.63;;;;;;;;;;5050099;28;20420;-50
2021/05/29 04:43:33;;;;;;;10.63;8.27;;;;;;;;;;5032759;28;20417;-51
2021/05/29 04:45:59;;;;;;;8.97;8.03;;;;;;;;;;5037201;28;20604;-51
2021/05/29 04:48:25;;;;;;;10.57;8.40;;;;;;;;;;5044961;28;20448;-50
2021/05/29 04:53:36;;;;;;;10.23;7.10;;;;;;;;;;5034787;28;20409;-50
2021/05/29 04:56:03;;;;;;;9.83;8.60;;;;;;;;;;5049431;28;20408;-50
2021/05/29 04:58:29;;;;;;;7.90;7.07;;;;;;;;;;5032655;28;20532;-50
2021/05/29 05:00:57;;;;;;;8.90;7.70;;;;;;;;;;5016828;28;20460;-50
2021/05/29 05:03:23;;;;;;;10.13;7.97;;;;;;;;;;5043934;28;20436;-51
2021/05/29 05:05:49;;;;;;;9.20;8.30;;;;;;;;;;5040494;28;20716;-50
2021/05/29 05:08:15;;;;;;;9.13;8.20;;;;;;;;;;5040363;28;20936;-50
2021/05/29 05:10:41;;;;;;;15.37;9.87;;;;;;;;;;5053347;28;20421;-50
2021/05/29 05:13:07;;;;;;;16.77;10.27;;;;;;;;;;5034048;28;20422;-50
2021/05/29 05:15:33;;;;;;;9.80;8.80;;;;;;;;;;5035410;28;20417;-50
2021/05/29 05:17:59;;;;;;;16.87;8.93;;;;;;;;;;5034185;28;20480;-50
2021/05/29 05:20:25;;;;;;;9.73;8.57;;;;;;;;;;5042111;28;20772;-50
2021/05/29 05:22:51;;;;;;;10.00;7.20;;;;;;;;;;5036271;28;20429;-50
2021/05/29 05:25:18;;;;;;;9.13;8.17;;;;;;;;;;5040979;28;20548;-50
2021/05/29 05:27:44;;;;;;;10.27;7.50;;;;;;;;;;5054111;28;20425;-50
2021/05/29 05:30:13;;;;;;;12.20;8.50;;;;;;;;;;5048209;28;20410;-50
2021/05/29 05:32:41;;;;;;;10.13;9.13;;;;;;;;;;5035118;28;20567;-50
2021/05/29 05:35:10;;;;;;;12.80;10.83;;;;;;;;;;5038199;28;20433;-50
2021/05/29 05:37:36;;;;;;;19.93;11.87;;;;;;;;;;5053746;28;20988;-50
2021/05/29 05:40:02;;;;;;;14.97;11.63;;;;;;;;;;5038323;28;20415;-50
2021/05/29 05:42:28;;;;;;;15.77;11.60;;;;;;;;;;5046546;28;20426;-50
2021/05/29 05:44:54;;;;;;;12.57;11.27;;;;;;;;;;5038228;28;20519;-50
2021/05/29 05:47:20;;;;;;;15.73;12.00;;;;;;;;;;5044869;28;20417;-50
2021/05/29 05:49:46;;;;;;;12.10;10.13;;;;;;;;;;5050407;28;20432;-50
2021/05/29 05:52:12;;;;;;;12.87;9.07;;;;;;;;;;5043891;28;20419;-50
2021/05/29 05:54:38;;;;;;;10.33;9.23;;;;;;;;;;5051725;28;20970;-51
2021/05/29 05:57:04;;;;;;;10.67;9.57;;;;;;;;;;5035834;28;20509;-51
2021/05/29 05:59:30;;;;;;;13.87;9.50;;;;;;;;;;5034965;28;20997;-50
2021/05/29 06:01:56;;;;;;;15.40;11.27;;;;;;;;;;5044172;28;20427;-50
2021/05/29 06:04:22;;;;;;;12.43;10.67;;;;;;;;;;5032356;28;20461;-51
2021/05/29 06:06:48;;;;;;;14.00;10.53;;;;;;;;;;5051114;28;20831;-51
2021/05/29 06:09:15;;;;;;;14.90;13.10;;;;;;;;;;5051915;28;20446;-50
2021/05/29 06:11:42;;;;;;;17.60;12.80;;;;;;;;;;5046086;28;20417;-50
2021/05/29 06:19:20;;;;;;;13.13;11.10;;;;;;;;;;5048728;28;20978;-50
2021/05/29 06:21:49;;;;;;;13.20;10.83;;;;;;;;;;5052363;28;21589;-51
2021/05/29 06:24:16;;;;;;;18.33;11.33;;;;;;;;;;5051040;28;20454;-51
2021/05/29 06:26:42;;;;;;;16.50;12.20;;;;;;;;;;5050767;28;20415;-50
2021/05/29 06:29:08;;;;;;;12.93;10.83;;;;;;;;;;5031501;28;20425;-50
2021/05/29 06:31:35;;;;;;;16.73;11.23;;;;;;;;;;5033169;28;20422;-50
2021/05/29 06:34:01;;;;;;;12.30;10.50;;;;;;;;;;5047321;28;20403;-50
2021/05/29 06:36:27;;;;;;;12.70;11.20;;;;;;;;;;5036583;28;20487;-50
2021/05/29 06:38:53;;;;;;;11.63;10.43;;;;;;;;;;5044803;28;20967;-50
2021/05/29 06:41:19;;;;;;;13.43;11.40;;;;;;;;;;5047849;28;20417;-51
2021/05/29 06:43:45;;;;;;;11.13;9.77;;;;;;;;;;5039700;28;20906;-50
2021/05/29 06:46:11;;;;;;;13.93;10.40;;;;;;;;;;5051538;28;20463;-50
2021/05/29 06:48:37;;;;;;;12.93;10.27;;;;;;;;;;5052634;28;20429;-50
2021/05/29 06:51:03;;;;;;;17.07;12.20;;;;;;;;;;5052527;28;20404;-50
2021/05/29 06:53:41;;;;;;;14.30;11.30;;;;;;;;;;5052472;28;20576;-50
2021/05/29 06:58:52;;;;;;;12.07;10.20;;;;;;;;;;5052390;28;20556;-51
2021/05/29 07:01:20;;;;;;;14.47;9.93;;;;;;;;;;5051687;28;20474;-50
2021/05/29 07:03:46;;;;;;;13.27;10.80;;;;;;;;;;5051289;28;20396;-50
2021/05/29 07:06:12;;;;;;;14.40;11.07;;;;;;;;;;5050816;28;20456;-51
2021/05/29 07:08:38;;;;;;;16.50;11.97;;;;;;;;;;5052244;28;20864;-50
2021/05/29 07:11:04;;;;;;;14.47;10.53;;;;;;;;;;5052098;28;20468;-50
2021/05/29 07:13:30;;;;;;;15.90;9.53;;;;;;;;;;5051655;28;20418;-50
2021/05/29 07:15:56;;;;;;;14.17;10.10;;;;;;;;;;5050990;28;20852;-50
2021/05/29 07:18:25;;;;;;;12.07;10.23;;;;;;;;;;5051860;28;20421;-50
2021/05/29 07:20:51;;;;;;;14.60;11.30;;;;;;;;;;5051729;28;20384;-50
2021/05/29 07:23:17;;;;;;;15.70;12.13;;;;;;;;;;5051630;28;20375;-50
2021/05/29 07:25:43;;;;;;;15.23;12.20;;;;;;;;;;5051476;28;20464;-50
2021/05/29 07:28:09;;;;;;;16.73;12.77;;;;;;;;;;5051655;28;20475;-50
2021/05/29 07:30:36;;;;;;;13.57;11.70;;;;;;;;;;5051713;28;20833;-50
2021/05/29 07:33:03;;;;;;;18.83;14.67;;;;;;;;;;5051235;28;20405;-50
2021/05/29 07:35:29;;;;;;;19.77;14.53;;;;;;;;;;5051462;28;20475;-50
2021/05/29 07:37:56;;;;;;;20.97;17.50;;;;;;;;;;5051483;28;20392;-50
2021/05/29 07:40:22;;;;;;;17.23;15.27;;;;;;;;;;5051402;28;20488;-50
2021/05/29 07:42:48;;;;;;;28.47;21.10;;;;;;;;;;5051099;28;20409;-50
2021/05/29 07:45:14;;;;;;;30.03;19.60;;;;;;;;;;5051329;28;20526;-51
2021/05/29 07:47:40;;;;;;;23.63;18.30;;;;;;;;;;5051062;28;20422;-50
2021/05/29 07:50:07;;;;;;;25.00;17.77;;;;;;;;;;5051413;28;20376;-50
2021/05/29 07:52:33;;;;;;;19.23;17.37;;;;;;;;;;5050874;28;20414;-51
2021/05/29 07:54:59;;;;;;;35.83;25.77;;;;;;;;;;5051165;28;20379;-51
2021/05/29 07:57:25;;;;;;;21.57;19.37;;;;;;;;;;5051063;28;20384;-51
2021/05/29 07:59:51;;;;;;;22.03;18.70;;;;;;;;;;5051687;28;20458;-51
2021/05/29 08:02:17;;;;;;;21.00;17.43;;;;;;;;;;5051309;28;20870;-51
2021/05/29 08:04:43;;;;;;;20.07;17.87;;;;;;;;;;5051209;28;20518;-51
2021/05/29 08:07:09;;;;;;;20.40;16.87;;;;;;;;;;5051167;28;20848;-50
2021/05/29 08:09:35;;;;;;;18.60;15.83;;;;;;;;;;5050977;28;20467;-50
2021/05/29 08:12:01;;;;;;;17.93;16.23;;;;;;;;;;5050634;28;20417;-51
2021/05/29 08:14:26;;;;;;;16.50;14.80;;;;;;;;;;5050809;28;20376;-50
2021/05/29 08:16:52;;;;;;;27.50;19.97;;;;;;;;;;5050651;28;20397;-50
2021/05/29 08:19:19;;;;;;;22.53;17.70;;;;;;;;;;5051007;28;20915;-51
2021/05/29 08:21:46;;;;;;;21.00;18.23;;;;;;;;;;5050845;28;20402;-50
2021/05/29 08:24:12;;;;;;;21.90;18.80;;;;;;;;;;5050719;28;20430;-50
2021/05/29 08:26:39;;;;;;;26.10;20.70;;;;;;;;;;5050470;28;20977;-51
2021/05/29 08:29:05;;;;;;;25.90;23.13;;;;;;;;;;5050607;28;20775;-50
2021/05/29 08:31:31;;;;;;;24.77;22.03;;;;;;;;;;5050614;28;20405;-50
2021/05/29 08:33:58;;;;;;;24.80;20.90;;;;;;;;;;5050653;28;20429;-51
2021/05/29 08:36:25;;;;;;;29.03;22.53;;;;;;;;;;5050969;28;20408;-51
2021/05/29 08:38:51;;;;;;;24.23;21.87;;;;;;;;;;5050546;28;20421;-51
2021/05/29 08:41:17;;;;;;;25.67;23.07;;;;;;;;;;5050496;28;20463;-51
2021/05/29 08:43:43;;;;;;;27.50;22.03;;;;;;;;;;5050409;28;20497;-51
2021/05/29 08:46:09;;;;;;;22.10;19.80;;;;;;;;;;5050531;28;20459;-51
2021/05/29 08:48:40;;;;;;;25.03;22.40;;;;;;;;;;5050772;28;20413;-51
2021/05/29 08:51:12;;;;;;;25.30;21.70;;;;;;;;;;5050896;28;20394;-51
2021/05/29 08:53:39;;;;;;;24.20;20.90;;;;;;;;;;5050851;28;20796;-51
2021/05/29 08:56:05;;;;;;;22.93;20.30;;;;;;;;;;5050664;28;20416;-51
2021/05/29 08:58:31;;;;;;;20.83;17.50;;;;;;;;;;5050204;28;20933;-51
2021/05/29 09:01:01;;;;;;;20.40;16.60;;;;;;;;;;5050472;28;20433;-51
2021/05/29 09:03:46;;;;;;;14.77;12.53;;;;;;;;;;5050230;28;20403;-51
2021/05/29 09:06:14;;;;;;;14.60;12.23;;;;;;;;;;5050262;28;20547;-51
2021/05/29 09:08:50;;;;;;;13.13;10.90;;;;;;;;;;5050172;28;20392;-51
2021/05/29 09:11:35;;;;;;;12.03;10.70;;;;;;;;;;5050423;28;20425;-51
2021/05/29 09:14:01;;;;;;;14.50;11.43;;;;;;;;;;5050111;28;20889;-51
2021/05/29 09:16:27;;;;;;;12.10;10.80;;;;;;;;;;5050239;28;20500;-51
2021/05/29 09:18:55;;;;;;;12.93;11.37;;;;;;;;;;5050124;28;20399;-51
2021/05/29 09:21:31;;;;;;;11.07;9.80;;;;;;;;;;5049961;28;20387;-51
2021/05/29 09:24:13;;;;;;;11.10;9.17;;;;;;;;;;5050205;28;20393;-51
2021/05/29 09:26:52;;;;;;;9.53;8.53;;;;;;;;;;5050155;28;20464;-51
2021/05/29 09:29:20;;;;;;;18.00;10.53;;;;;;;;;;5049921;28;20659;-51
2021/05/29 09:32:18;;;;;;;10.40;9.40;;;;;;;;;;5049889;28;20403;-51
2021/05/29 09:34:56;;;;;;;12.10;9.50;;;;;;;;;;5037802;28;20436;-51
2021/05/29 09:37:23;;;;;;;12.80;11.20;;;;;;;;;;5050305;28;20413;-51
2021/05/29 09:39:50;;;;;;;10.73;9.20;;;;;;;;;;5053695;28;20409;-51
2021/05/29 09:42:17;;;;;;;10.60;9.37;;;;;;;;;;5053551;28;20405;-51
2021/05/29 09:44:43;;;;;;;11.10;9.00;;;;;;;;;;5053470;28;20452;-51
2021/05/29 09:47:13;;;;;;;11.63;9.37;;;;;;;;;;5053661;28;20410;-51
2021/05/29 09:49:48;;;;;;;12.17;8.83;;;;;;;;;;5053592;28;20487;-51
2021/05/29 09:52:23;;;;;;;11.33;9.97;;;;;;;;;;5053320;28;20379;-51
2021/05/29 09:54:49;;;;;;;10.47;7.60;;;;;;;;;;5053358;28;20466;-51
2021/05/29 09:57:15;;;;;;;9.17;7.80;;;;;;;;;;5053485;28;20480;-51
2021/05/29 09:59:52;;;;;;;11.53;7.87;;;;;;;;;;5053245;28;20826;-51
2021/05/29 10:02:18;;;;;;;9.97;9.00;;;;;;;;;;5053222;28;20811;-51
2021/05/29 10:04:49;;;;;;;9.60;8.60;;;;;;;;;;5053113;28;21029;-51
2021/05/29 10:07:15;;;;;;;11.70;9.17;;;;;;;;;;5053163;28;20405;-51
2021/05/29 10:09:42;;;;;;;10.63;9.30;;;;;;;;;;5053055;28;20427;-51
2021/05/29 10:12:08;;;;;;;9.93;8.93;;;;;;;;;;5053236;28;20372;-51
2021/05/29 10:14:34;;;;;;;11.67;10.43;;;;;;;;;;5053052;28;20404;-51
2021/05/29 10:17:03;;;;;;;8.10;7.30;;;;;;;;;;5052156;28;20413;-51
2021/05/29 10:19:30;;;;;;;8.73;7.93;;;;;;;;;;5053100;28;20425;-51
2021/05/29 10:21:56;;;;;;;11.53;9.40;;;;;;;;;;5052716;28;20404;-51
2021/05/29 10:24:23;;;;;;;12.17;8.53;;;;;;;;;;5053046;28;20488;-51
2021/05/29 10:26:50;;;;;;;8.80;7.90;;;;;;;;;;5052778;28;20398;-51
2021/05/29 10:29:16;;;;;;;9.33;8.00;;;;;;;;;;5052816;28;20425;-51
2021/05/29 10:31:43;;;;;;;9.63;8.30;;;;;;;;;;5052679;28;20498;-51
2021/05/29 10:34:09;;;;;;;8.77;7.87;;;;;;;;;;5052470;28;20425;-51
2021/05/29 10:36:58;;;;;;;8.27;7.47;;;;;;;;;;5052588;28;20415;-51
2021/05/29 10:39:25;;;;;;;8.47;7.60;;;;;;;;;;5052805;28;20439;-51
2021/05/29 10:41:56;;;;;;;9.67;7.07;;;;;;;;;;5052446;28;20412;-51
2021/05/29 10:44:30;;;;;;;15.07;8.93;;;;;;;;;;5052639;28;20773;-51
2021/05/29 10:47:07;;;;;;;8.30;7.47;;;;;;;;;;5052489;28;20437;-51
2021/05/29 10:49:49;;;;;;;9.90;8.17;;;;;;;;;;5052319;28;20417;-51
2021/05/29 10:52:31;;;;;;;9.47;8.03;;;;;;;;;;5052421;28;20394;-51
2021/05/29 10:55:23;;;;;;;7.87;7.10;;;;;;;;;;5052693;28;20402;-51
2021/05/29 10:57:49;;;;;;;8.53;7.40;;;;;;;;;;5051127;28;20817;-51
2021/05/29 11:00:39;;;;;;;8.10;7.27;;;;;;;;;;5052356;28;20406;-51
2021/05/29 11:03:19;;;;;;;7.27;6.53;;;;;;;;;;5049071;28;20475;-51
2021/05/29 11:05:45;;;;;;;9.53;6.10;;;;;;;;;;5052117;28;20459;-51
2021/05/29 11:08:30;;;;;;;7.40;6.70;;;;;;;;;;5052047;28;21017;-51
2021/05/29 11:10:56;;;;;;;9.07;6.93;;;;;;;;;;5052256;28;20895;-51
2021/05/29 11:13:40;;;;;;;9.20;6.60;;;;;;;;;;5051892;28;20393;-51
2021/05/29 11:16:06;;;;;;;8.80;7.37;;;;;;;;;;5052174;28;20455;-51
2021/05/29 11:18:32;;;;;;;8.33;6.53;;;;;;;;;;5051883;28;20425;-51
2021/05/29 11:21:02;;;;;;;9.43;5.50;;;;;;;;;;5052012;28;20410;-51
2021/05/29 11:23:28;;;;;;;6.30;5.70;;;;;;;;;;5051643;28;20901;-51
2021/05/29 11:25:54;;;;;;;7.77;6.10;;;;;;;;;;5051768;28;20502;-51
2021/05/29 11:28:23;;;;;;;7.30;6.17;;;;;;;;;;5051449;28;20414;-51
2021/05/29 11:30:49;;;;;;;10.67;8.70;;;;;;;;;;5051976;28;20401;-51
2021/05/29 11:33:16;;;;;;;5.97;5.37;;;;;;;;;;5051509;28;20416;-51
2021/05/29 11:35:45;;;;;;;8.73;7.60;;;;;;;;;;5050429;28;20425;-52
2021/05/29 11:38:19;;;;;;;7.00;6.40;;;;;;;;;;5051454;28;20832;-51
2021/05/29 11:40:57;;;;;;;8.03;5.83;;;;;;;;;;5051566;28;20405;-51
2021/05/29 11:43:42;;;;;;;6.47;5.77;;;;;;;;;;5051148;28;20416;-51
2021/05/29 11:46:12;;;;;;;6.23;5.73;;;;;;;;;;5051294;28;20456;-51
2021/05/29 11:48:42;;;;;;;7.10;6.40;;;;;;;;;;5051159;28;20450;-51
2021/05/29 11:51:09;;;;;;;5.90;5.17;;;;;;;;;;5051372;28;20400;-51
2021/05/29 11:53:36;;;;;;;6.03;5.43;;;;;;;;;;5050821;28;20939;-51
2021/05/29 11:56:05;;;;;;;7.80;6.80;;;;;;;;;;5051268;28;20756;-51
2021/05/29 11:58:50;;;;;;;6.10;5.50;;;;;;;;;;5051221;28;20429;-51
2021/05/29 12:01:18;;;;;;;5.57;4.80;;;;;;;;;;5050534;28;20466;-51
2021/05/29 12:03:51;;;;;;;5.43;4.90;;;;;;;;;;5050755;28;20437;-51
2021/05/29 12:06:35;;;;;;;10.87;5.07;;;;;;;;;;5051338;28;20483;-51
2021/05/29 12:09:04;;;;;;;6.20;5.70;;;;;;;;;;5050915;28;20786;-51
2021/05/29 12:11:30;;;;;;;6.37;5.30;;;;;;;;;;5050911;28;20897;-51
2021/05/29 12:13:58;;;;;;;6.67;5.87;;;;;;;;;;5050838;28;20393;-51
2021/05/29 12:16:34;;;;;;;5.83;5.23;;;;;;;;;;5050722;28;20410;-51
2021/05/29 12:19:01;;;;;;;6.13;5.53;;;;;;;;;;5050672;28;20508;-51
2021/05/29 12:21:48;;;;;;;6.33;5.60;;;;;;;;;;5050939;28;20826;-51
2021/05/29 12:24:14;;;;;;;5.67;5.17;;;;;;;;;;5050626;28;20397;-51
2021/05/29 12:26:40;;;;;;;7.00;5.80;;;;;;;;;;5050635;28;20449;-51
2021/05/29 12:29:06;;;;;;;5.50;5.00;;;;;;;;;;5050789;28;20495;-51
2021/05/29 12:31:56;;;;;;;6.60;5.63;;;;;;;;;;5050557;28;20404;-51
2021/05/29 12:34:23;;;;;;;5.73;5.00;;;;;;;;;;5050531;28;20471;-51
2021/05/29 12:36:56;;;;;;;10.03;5.27;;;;;;;;;;5050731;28;20398;-51
2021/05/29 12:39:24;;;;;;;6.63;6.03;;;;;;;;;;5050520;28;20429;-51
2021/05/29 12:41:50;;;;;;;6.20;5.33;;;;;;;;;;5050333;28;20393;-51
2021/05/29 12:44:16;;;;;;;8.17;4.90;;;;;;;;;;5050827;28;20492;-51
2021/05/29 12:46:42;;;;;;;8.60;5.60;;;;;;;;;;5050423;28;20869;-51
2021/05/29 12:49:09;;;;;;;5.90;5.30;;;;;;;;;;5050452;28;20492;-51
2021/05/29 12:51:38;;;;;;;6.37;5.87;;;;;;;;;;5050277;28;20878;-51
2021/05/29 12:54:04;;;;;;;6.33;5.83;;;;;;;;;;5050552;28;20401;-51
2021/05/29 12:56:30;;;;;;;7.10;5.70;;;;;;;;;;5050505;28;20933;-51
2021/05/29 12:59:01;;;;;;;7.37;6.00;;;;;;;;;;5050607;28;20425;-51
2021/05/29 13:09:46;;;;;;;8.60;6.30;;;;;;;;;;5041629;28;20433;-51
2021/05/29 13:12:14;;;;;;;7.90;7.10;;;;;;;;;;5031730;28;20885;-51
2021/05/29 13:14:47;;;;;;;6.97;6.20;;;;;;;;;;5051421;28;20397;-51
2021/05/29 13:17:23;;;;;;;7.60;6.80;;;;;;;;;;5054200;28;21024;-51
2021/05/29 13:19:51;;;;;;;7.30;5.90;;;;;;;;;;5047036;28;20434;-52
2021/05/29 13:22:25;;;;;;;7.30;6.00;;;;;;;;;;5034518;28;20402;-51
2021/05/29 13:24:55;;;;;;;7.23;5.07;;;;;;;;;;5044721;28;20452;-51
2021/05/29 13:27:28;;;;;;;6.67;6.13;;;;;;;;;;5033757;28;20410;-51
2021/05/29 13:29:54;;;;;;;5.87;5.27;;;;;;;;;;5034199;28;20406;-51
2021/05/29 13:32:21;;;;;;;6.47;5.47;;;;;;;;;;5033909;28;20405;-51
2021/05/29 13:34:48;;;;;;;6.93;6.20;;;;;;;;;;5033832;28;20917;-51
2021/05/29 13:37:14;;;;;;;9.23;5.70;;;;;;;;;;5034024;28;20767;-51
2021/05/29 13:39:41;;;;;;;7.40;5.63;;;;;;;;;;5033642;28;20430;-52
2021/05/29 13:42:08;;;;;;;6.90;5.43;;;;;;;;;;5033719;28;20934;-51
2021/05/29 13:44:34;;;;;;;8.57;5.93;;;;;;;;;;5033683;28;20406;-51
2021/05/29 13:47:02;;;;;;;5.67;5.10;;;;;;;;;;5033808;28;20394;-51
2021/05/29 13:49:28;;;;;;;7.13;6.43;;;;;;;;;;5033460;28;20934;-51
2021/05/29 13:51:54;;;;;;;9.20;6.60;;;;;;;;;;5033535;28;20901;-51
2021/05/29 13:54:20;;;;;;;7.60;6.70;;;;;;;;;;5033404;28;20456;-51
2021/05/29 13:56:46;;;;;;;7.57;6.77;;;;;;;;;;5033673;28;20410;-51
2021/05/29 13:59:13;;;;;;;7.10;5.93;;;;;;;;;;5033327;28;20509;-51
2021/05/29 14:01:39;;;;;;;6.77;6.10;;;;;;;;;;5033958;28;20425;-50
2021/05/29 14:04:05;;;;;;;6.03;5.53;;;;;;;;;;5033788;28;20406;-50
2021/05/29 14:06:39;;;;;;;6.93;6.07;;;;;;;;;;5033546;28;20453;-50
2021/05/29 14:09:06;;;;;;;8.40;6.07;;;;;;;;;;5033590;28;20422;-50
2021/05/29 14:11:35;;;;;;;6.10;5.60;;;;;;;;;;5033329;28;20398;-50
2021/05/29 14:14:01;;;;;;;7.20;6.00;;;;;;;;;;5033180;28;20993;-50
2021/05/29 14:16:27;;;;;;;10.40;7.40;;;;;;;;;;5033252;28;20497;-51
2021/05/29 14:18:53;;;;;;;9.43;7.63;;;;;;;;;;5033004;28;20430;-51
2021/05/29 14:21:19;;;;;;;9.00;7.40;;;;;;;;;;5032964;28;20414;-50
2021/05/29 14:23:46;;;;;;;9.13;8.20;;;;;;;;;;5032530;28;20891;-50
2021/05/29 14:26:12;;;;;;;12.23;8.47;;;;;;;;;;5033350;28;20465;-50
2021/05/29 14:28:39;;;;;;;9.40;7.00;;;;;;;;;;5033089;28;20429;-50
2021/05/29 14:31:06;;;;;;;8.50;7.70;;;;;;;;;;5033467;28;20667;-50
2021/05/29 14:33:35;;;;;;;8.23;7.30;;;;;;;;;;5032861;28;20476;-50
2021/05/29 14:36:02;;;;;;;8.53;7.73;;;;;;;;;;5032923;28;20414;-53
2021/05/29 14:38:28;;;;;;;7.33;6.73;;;;;;;;;;5033114;28;20480;-50
2021/05/29 14:40:55;;;;;;;10.33;8.10;;;;;;;;;;5032744;28;20810;-50
2021/05/29 14:43:21;;;;;;;8.30;7.40;;;;;;;;;;5032552;28;20489;-50
2021/05/29 14:45:48;;;;;;;9.50;8.50;;;;;;;;;;5032501;28;20541;-51
2021/05/29 14:48:14;;;;;;;11.37;8.30;;;;;;;;;;5032634;28;20414;-51
2021/05/29 14:50:49;;;;;;;8.57;7.60;;;;;;;;;;5032485;28;20429;-51
2021/05/29 14:53:16;;;;;;;8.53;7.27;;;;;;;;;;5032576;28;20402;-50
2021/05/29 14:55:42;;;;;;;7.73;6.83;;;;;;;;;;5032425;28;20773;-52
2021/05/29 14:58:08;;;;;;;20.83;8.90;;;;;;;;;;5032488;28;20464;-52